Tiempo atmosférico en la estación meteorológica de Sant Jaume d'Enveja, Tarragona (1 m.)



Fecha
DESCASC
Temp. máxima en grados centígrados (hora)
DESCASC
Temp. mínima en grados centígrados (hora)
DESCASC
Temp. media en grados centígrados
DESCASC
Racha de viento máxima en m/sg (hora)
DESCASC
Velocidad máxima media en intervalos de 10 minutos(hora)
DESCASC
Precipitaciones diarias en mm
DESCASC
Precipitaciones de 00:00 a 06:00 en mm
DESCASC
Precipitaciones de 06:00 a 12:00 en mm
DESCASC
Precipitaciones de 12:00 a 18:00 en mm
DESCASC
Precipitaciones de 18:00 a 24:00 en mm
DESCASC
22-04-2019 16 (15:20) 13.2 (23:59) 14.6 11.11 (14:40) 6.94 (10:50) 0.5 0 0 0 0.5
21-04-2019 16.4 (12:20) 12.6 (06:20) 14.5 11.67 (13:20) 5.83 (13:30) 0 0 0 0 0
20-04-2019 16.4 (08:30) 13.7 (20:50) 15 13.89 (09:40) 7.5 (21:00) 1.3 0 0 0.8 0.5
19-04-2019 16.9 (13:00) 14.6 (01:30) 15.8 13.61 (09:40) 6.11 (21:50) 0 0 0 0 0
18-04-2019 16.7 (15:40) 14.2 (00:00) 15.5 14.72 (11:40) 7.22 (10:30) 0 0 0 0 0
17-04-2019 17.3 (16:00) 11.4 (00:00) 14.3 10 (18:20) 5.56 (14:10) 0 0 0 0 0
16-04-2019 18.8 (14:50) 13.1 (00:00) 15.9 10 (15:30) 5.56 (09:20) 0 0 0 0 0
15-04-2019 17.4 (14:30) 12.3 (00:00) 14.8 10.28 (02:20) 5.83 (17:30) 0 0 0 0 0
14-04-2019 21.8 (11:40) 6.5 (00:00) 14.1 8.89 (13:30) 6.39 (13:00) 0 0 0 0 0
13-04-2019 21.4 (13:40) 9 (00:00) 15.2 10 (16:30) 7.5 (17:20) 0 0 0 0 0
12-04-2019 20.7 (13:30) 11 (00:00) 15.9 11.11 (01:30) 6.67 (18:30) 0 0 0 0 0
11-04-2019 -- (--) -- (--) -- -- (--) -- (--) -- 0 -- -- --
10-04-2019 20.9 (15:30) 12.2 (00:00) 16.5 12.22 (03:30) 6.67 (19:30) 0.5 0 0 0 0.5
09-04-2019 20.9 (13:40) 10.4 (00:00) 15.6 11.11 (10:10) 8.33 (14:20) 0 0 0 0 0
08-04-2019 19.1 (15:40) 8.1 (00:00) 13.6 10 (19:00) 6.94 (16:50) 0.9 0 0 0 0.9
07-04-2019 19.8 (18:10) 6.8 (00:00) 13.3 15.28 (12:10) 7.78 (13:10) 0 0 0 0 0
06-04-2019 17.9 (14:10) 6.9 (00:00) 12.4 14.44 (19:00) 7.22 (18:50) 0 0 0 0 0
05-04-2019 18 (14:40) 8.7 (00:00) 13.3 11.67 (20:30) 8.61 (20:30) 1 0 0 0 1
04-04-2019 17.2 (15:40) 7.4 (00:00) 12.3 16.94 (06:00) 7.78 (11:20) 0.1 0.1 0 0 0
03-04-2019 16.9 (15:40) 9.9 (20:20) 13.4 13.89 (22:10) 8.06 (17:30) 2.2 0 0 0.7 1.5
02-04-2019 18.7 (16:20) 8.1 (00:00) 13.4 8.33 (14:30) 6.11 (17:20) 0 0 0 0 0
01-04-2019 17.8 (14:30) 11.7 (00:00) 14.7 6.67 (02:20) 4.17 (15:00) 0.4 0.2 0.2 0 0
31-03-2019 15.3 (15:10) 11.9 (00:00) 13.6 9.17 (13:20) 4.72 (14:20) 1.6 0 0 0.8 0.8
30-03-2019 16.7 (14:20) 7.1 (00:00) 11.9 6.39 (12:50) 2.5 (08:00) 0 0 0 0 0
29-03-2019 16.9 (13:30) 7.1 (00:00) 12 8.06 (13:20) 5 (14:20) 0 0 0 0 0
28-03-2019 18.5 (12:40) 7 (00:00) 12.8 8.61 (14:50) 5.83 (14:50) 0 0 0 0 0
27-03-2019 18.5 (12:40) 8.1 (00:00) 13.3 9.17 (15:40) 6.67 (15:50) 0 0 0 0 0
26-03-2019 20.1 (14:50) 10.9 (00:00) 15.5 13.06 (16:40) 10.28 (16:40) 0 0 0 0 0
25-03-2019 22.4 (13:30) 7.3 (00:00) 14.8 8.61 (14:40) 6.67 (14:30) 0 0 0 0 0

Gráficas

Temp. máximas Temp. mínimas Temp. medias Precipitaciones Rachas de viento máximas Velocidades máximas media en intervalos de 10 minutos

Datos horarios

Fecha y hora oficial Temperatura (ºC) Velocidad del viento (km/h) Dirección del viento Racha (km/h) Dirección de racha Precipitación (mm) Presión (hPa) Tendencia (hPa) Humedad (%)
2019-04-23 23:00:00 15.3 31 Sudoeste 40 Sudoeste 0 -- -- 81
2019-04-23 22:00:00 15.7 25 Sudoeste 42 Sudoeste 0 -- -- 81
2019-04-23 21:00:00 16.3 29 Sudoeste 38 Sur 0 -- -- 77
2019-04-23 20:00:00 17.2 24 Sur 28 Sur 0 -- -- 77
2019-04-23 19:00:00 19.5 25 Sudoeste 53 Sudoeste 0 -- -- 53
2019-04-23 18:00:00 18.2 26 Sur 37 Sur 0 -- -- 77
2019-04-23 17:00:00 17.8 13 Sur -- -- -- -- -- 75
2019-04-23 16:00:00 16.9 10 Sur 19 Sur 0 -- -- 75
2019-04-23 15:00:00 18 15 Sur 21 Sur 0 -- -- 81
2019-04-23 14:00:00 17.2 10 Sur 19 Sudeste 0 -- -- 79
2019-04-23 13:00:00 17.2 8 Sudeste 18 Sudeste 0 -- -- 82
2019-04-23 12:00:00 16.6 13 Sur 17 Sur 0 -- -- 83
2019-04-23 11:00:00 15.8 8 Sur 12 Sur 0 -- -- 86
2019-04-23 10:00:00 13.9 0 Calma 2 Noroeste 0 -- -- 89
2019-04-23 09:00:00 12.8 0 Calma 4 Oeste 0 -- -- 95
2019-04-23 08:00:00 11.8 0 Calma 5 Sudoeste 0 -- -- 96
2019-04-23 07:00:00 11.8 0 Calma 8 Oeste 0 -- -- 95
2019-04-23 06:00:00 12.2 0 Calma 8 Oeste 0 -- -- 96
2019-04-23 05:00:00 12.7 3 Oeste 12 Oeste 0.1 -- -- 96
2019-04-23 04:00:00 12.8 5 Sudoeste 10 Sudoeste 0 -- -- 96
2019-04-23 03:00:00 12.9 0 Calma 10 Oeste 0.1 -- -- 96
2019-04-23 02:00:00 13 6 Noroeste 11 Oeste 0.5 -- -- 96
2019-04-23 01:00:00 13.1 4 Noroeste 13 Norte 0.6 -- -- 95
2019-04-23 00:00:00 13.2 6 Noroeste 13 Noroeste 0.4 -- -- 94
2019-04-22 23:00:00 13.9 8 Noroeste 14 Norte 0.1 -- -- 87
2019-04-22 22:00:00 14.8 0 Calma 4 Sudoeste 0 -- -- 78
2019-04-22 21:00:00 15.2 0 Calma 9 Noroeste 0 -- -- 75
2019-04-22 20:00:00 15.6 6 Noroeste 14 Noroeste 0 -- -- 74
2019-04-22 19:00:00 15.9 9 Noroeste 22 Norte 0 -- -- 71
2019-04-22 18:00:00 15.1 13 Noroeste 29 Norte 0 -- -- 77
2019-04-22 17:00:00 15.2 14 Norte 31 Noroeste 0 -- -- 76
2019-04-22 16:00:00 15.9 19 Norte 36 Norte 0 -- -- 70
2019-04-22 15:00:00 15.8 23 Norte 40 Noroeste 0 -- -- 70
2019-04-22 14:00:00 15.7 21 Noroeste 38 Norte 0 -- -- 70
2019-04-22 13:00:00 15.4 19 Noroeste 36 Norte 0 -- -- 72
2019-04-22 12:00:00 14.5 13 Norte 37 Norte 0 -- -- 80
2019-04-22 11:00:00 14 25 Norte 39 Noroeste 0 -- -- 80
2019-04-22 10:00:00 14 22 Noroeste 39 Noroeste 0 -- -- 78
2019-04-22 09:00:00 13.7 19 Noroeste 31 Norte 0 -- -- 79
2019-04-22 08:00:00 13.7 13 Noroeste 23 Norte 0 -- -- 78
2019-04-22 07:00:00 14.1 12 Norte 23 Norte 0 -- -- 77
2019-04-22 06:00:00 15.1 7 Nordeste 26 Nordeste 0 -- -- 69
2019-04-22 05:00:00 14.1 12 Noroeste 27 Noroeste 0 -- -- 78
2019-04-22 04:00:00 14.8 15 Norte 25 Norte 0 -- -- 72
2019-04-22 03:00:00 14.9 9 Norte 25 Norte 0 -- -- 77
2019-04-22 02:00:00 14.4 12 Norte 24 Norte 0 -- -- 81
2019-04-22 01:00:00 14.5 15 Norte 25 Noroeste 0 -- -- 81
2019-04-22 00:00:00 14.4 6 Norte 18 Norte 0 -- -- 82
2019-04-21 23:00:00 14.4 14 Norte 30 Norte 0 -- -- 84
2019-04-21 22:00:00 15.2 10 Nordeste 34 Nordeste 0 -- -- 82
2019-04-21 21:00:00 15.3 8 Nordeste 29 Nordeste 0 -- -- 78
2019-04-21 20:00:00 15.3 13 Nordeste 35 Nordeste 0 -- -- 77
2019-04-21 19:00:00 15.2 11 Este 31 Nordeste 0 -- -- 77
2019-04-21 18:00:00 15.6 14 Nordeste 30 Nordeste 0 -- -- 71
2019-04-21 17:00:00 15.7 15 Nordeste 34 Nordeste 0 -- -- 71
2019-04-21 16:00:00 15.6 15 Nordeste 39 Nordeste 0 -- -- 70
2019-04-21 15:00:00 15.9 16 Nordeste 39 Nordeste 0 -- -- 65
2019-04-21 14:00:00 15.7 19 Nordeste 42 Nordeste 0 -- -- 71
2019-04-21 13:00:00 15.4 20 Nordeste 38 Nordeste 0 -- -- 76
2019-04-21 12:00:00 16 8 Nordeste 26 Norte 0 -- -- 69
2019-04-21 11:00:00 15 17 Norte 26 Norte 0 -- -- 74
2019-04-21 10:00:00 13.7 15 Noroeste 24 Noroeste 0 -- -- 79
2019-04-21 09:00:00 13.6 14 Norte 26 Norte 0 -- -- 78
2019-04-21 08:00:00 13 13 Noroeste 26 Norte 0 -- -- 81
2019-04-21 07:00:00 13.3 16 Norte 28 Noroeste 0 -- -- 77
2019-04-21 06:00:00 12.9 17 Noroeste 29 Norte 0 -- -- 80
2019-04-21 05:00:00 13.1 19 Norte 31 Noroeste 0 -- -- 78
2019-04-21 04:00:00 13 13 Norte 27 Norte 0 -- -- 81
2019-04-21 03:00:00 13.8 17 Norte 27 Norte 0 -- -- 76
2019-04-21 02:00:00 13 9 Norte 30 Norte 0 -- -- 81
2019-04-21 01:00:00 14.4 9 Norte 32 Norte 0 -- -- 72
2019-04-21 00:00:00 14.2 10 Norte 32 Norte 0 -- -- 74
2019-04-20 23:00:00 13.8 13 Norte 40 Nordeste 0 -- -- 75
2019-04-20 22:00:00 13.9 15 Norte 39 Norte 0 -- -- 75
2019-04-20 21:00:00 13.8 27 Norte 43 Norte 0.1 -- -- 77
2019-04-20 20:00:00 14.6 8 Nordeste 33 Norte 0.2 -- -- 78
2019-04-20 19:00:00 15 8 Nordeste 27 Nordeste 0.2 -- -- 76
2019-04-20 18:00:00 14.9 13 Nordeste 33 Nordeste 0.7 -- -- 72
2019-04-20 17:00:00 15.5 13 Nordeste 40 Nordeste 0 -- -- 66
2019-04-20 16:00:00 15.7 20 Nordeste 45 Nordeste 0.1 -- -- 66
2019-04-20 15:00:00 15.7 21 Nordeste 48 Nordeste 0 -- -- 68
2019-04-20 14:00:00 16.1 23 Nordeste 48 Nordeste 0 -- -- 65
2019-04-20 13:00:00 16 18 Nordeste 50 Nordeste 0 -- -- 67
2019-04-20 12:00:00 16 24 Nordeste 49 Nordeste 0 -- -- 65
2019-04-20 11:00:00 16.3 22 Nordeste 46 Nordeste 0 -- -- 61
2019-04-20 10:00:00 16.4 14 Nordeste 50 Nordeste 0 -- -- 60
2019-04-20 09:00:00 16.1 17 Nordeste 35 Nordeste 0 -- -- 61
2019-04-20 08:00:00 16.3 10 Nordeste 32 Nordeste 0 -- -- 58
2019-04-20 07:00:00 15.4 4 Norte 27 Nordeste 0 -- -- 67
2019-04-20 06:00:00 15.9 13 Nordeste 34 Nordeste 0 -- -- 59
2019-04-20 05:00:00 15.8 8 Nordeste 30 Nordeste 0 -- -- 61
2019-04-20 04:00:00 15.9 9 Nordeste 31 Nordeste 0 -- -- 64
2019-04-20 03:00:00 15.8 9 Nordeste 37 Nordeste 0 -- -- 67
2019-04-20 02:00:00 15.9 22 Nordeste 48 Nordeste 0 -- -- 67
2019-04-20 01:00:00 15.8 23 Nordeste 49 Nordeste 0 -- -- 70
2019-04-20 00:00:00 15.8 19 Nordeste 37 Nordeste 0 -- -- 68
2019-04-19 23:00:00 15.7 15 Nordeste 41 Nordeste 0 -- -- 74
2019-04-19 22:00:00 15.7 21 Nordeste 42 Nordeste 0 -- -- 74
2019-04-19 21:00:00 15.6 18 Nordeste 42 Nordeste 0 -- -- 74
2019-04-19 20:00:00 15.7 19 Nordeste 46 Nordeste 0 -- -- 75
2019-04-19 19:00:00 15.8 20 Nordeste 45 Nordeste 0 -- -- 76
2019-04-19 18:00:00 16.6 15 Nordeste 46 Nordeste 0 -- -- 71
2019-04-19 17:00:00 16.4 16 Nordeste 37 Nordeste 0 -- -- 71
2019-04-19 16:00:00 16.3 19 Nordeste 40 Nordeste 0 -- -- 73
2019-04-19 15:00:00 16.4 18 Nordeste 44 Nordeste 0 -- -- 72
2019-04-19 14:00:00 16.6 18 Nordeste 49 Nordeste 0 -- -- 70
2019-04-19 13:00:00 16.8 19 Nordeste 47 Nordeste 0 -- -- 70
2019-04-19 12:00:00 16.1 19 Nordeste 46 Nordeste 0 -- -- 76
2019-04-19 11:00:00 15.7 19 Nordeste 47 Nordeste 0 -- -- 80
2019-04-19 10:00:00 15.4 18 Nordeste 49 Nordeste 0 -- -- 81
2019-04-19 09:00:00 14.9 15 Nordeste 38 Nordeste 0 -- -- 82
2019-04-19 08:00:00 14.9 14 Nordeste 35 Nordeste 0 -- -- 82
2019-04-19 07:00:00 14.8 15 Nordeste 36 Nordeste 0 -- -- 86
2019-04-19 06:00:00 14.8 13 Este 33 Nordeste 0 -- -- 86
2019-04-19 05:00:00 15 12 Este 42 Nordeste 0 -- -- 85
2019-04-19 04:00:00 14.9 14 Este 39 Nordeste 0 -- -- 82
2019-04-19 03:00:00 14.9 14 Nordeste 45 Nordeste 0 -- -- 82
2019-04-19 02:00:00 14.7 18 Nordeste 46 Nordeste 0 -- -- 83
2019-04-19 01:00:00 14.9 16 Nordeste 39 Nordeste 0 -- -- 84
2019-04-19 00:00:00 14.9 13 Este 41 Nordeste 0 -- -- 85
2019-04-18 23:00:00 15.1 13 Este 39 Nordeste 0 -- -- 82
2019-04-18 22:00:00 15 15 Nordeste 39 Nordeste 0 -- -- 82
2019-04-18 21:00:00 15 16 Nordeste 36 Nordeste 0 -- -- 82
2019-04-18 20:00:00 15.2 9 Este 41 Nordeste 0 -- -- 83
2019-04-18 19:00:00 15.6 10 Nordeste 49 Nordeste 0 -- -- 78
2019-04-18 18:00:00 16.2 10 Nordeste 44 Nordeste 0 -- -- 74
2019-04-18 17:00:00 16.3 17 Nordeste 49 Nordeste 0 -- -- 73
2019-04-18 16:00:00 16.4 19 Nordeste 45 Nordeste 0 -- -- 72
2019-04-18 15:00:00 16.1 24 Nordeste 48 Nordeste 0 -- -- 72
2019-04-18 14:00:00 15.6 20 Nordeste 49 Nordeste 0 -- -- 74
2019-04-18 13:00:00 15.5 18 Nordeste 43 Nordeste 0 -- -- 76
2019-04-18 12:00:00 15.3 21 Nordeste 53 Nordeste 0 -- -- 83
2019-04-18 11:00:00 15 20 Nordeste 46 Nordeste 0 -- -- 83
2019-04-18 10:00:00 14.9 17 Nordeste 39 Nordeste 0 -- -- 83
2019-04-18 09:00:00 14.4 13 Nordeste 37 Nordeste 0 -- -- 85
2019-04-18 08:00:00 14.4 14 Nordeste 30 Nordeste 0 -- -- 85
2019-04-18 07:00:00 14.4 12 Nordeste 29 Nordeste 0 -- -- 87
2019-04-18 06:00:00 14.4 14 Nordeste 31 Nordeste 0 -- -- 88
2019-04-18 05:00:00 14.6 13 Nordeste 28 Nordeste 0 -- -- 89
2019-04-18 04:00:00 14.8 9 Nordeste 21 Nordeste 0 -- -- 89
2019-04-18 03:00:00 14.8 6 Nordeste 17 Nordeste 0 -- -- 89
2019-04-18 02:00:00 14.9 7 Nordeste 18 Nordeste 0 -- -- 90
2019-04-18 01:00:00 14.8 8 Nordeste 17 Nordeste 0 -- -- 89
2019-04-18 00:00:00 14.8 6 Nordeste 15 Nordeste 0 -- -- 89
2019-04-17 23:00:00 15.2 2 Este 10 Nordeste 0 -- -- 89
2019-04-17 22:00:00 14.9 3 Este 13 Sudeste 0 -- -- 87
2019-04-17 21:00:00 14.8 3 Este 17 Este 0 -- -- 89
2019-04-17 20:00:00 15 4 Este 18 Sudeste 0 -- -- 87
2019-04-17 19:00:00 15.4 4 Este 36 Este 0 -- -- 81
2019-04-17 18:00:00 15.9 8 Este 28 Sudeste 0 -- -- 78
2019-04-17 17:00:00 16.3 15 Este 30 Sudeste 0 -- -- 77
2019-04-17 16:00:00 16.3 17 Sudeste 29 Sudeste 0 -- -- 77
2019-04-17 15:00:00 16.3 11 Sudeste 30 Sudeste 0 -- -- 75
2019-04-17 14:00:00 16.7 15 Este 33 Este 0 -- -- 77
2019-04-17 13:00:00 16.7 16 Sudeste 28 Sudeste 0 -- -- 76
2019-04-17 12:00:00 16.6 13 Sudeste 24 Sudeste 0 -- -- 76
2019-04-17 11:00:00 15.2 12 Sudeste 25 Sudeste 0 -- -- 76
2019-04-17 10:00:00 15 6 Este 18 Sudeste 0 -- -- 78
2019-04-17 09:00:00 14.5 4 Este 13 Este 0 -- -- 83
2019-04-17 08:00:00 13.4 0 Calma 6 Sudeste 0 -- -- 88
2019-04-17 07:00:00 12.8 0 Calma 7 Nordeste 0 -- -- 89
2019-04-17 06:00:00 12.4 0 Calma 7 Nordeste 0 -- -- 92
2019-04-17 05:00:00 12 3 Nordeste 6 Nordeste 0 -- -- 96
2019-04-17 04:00:00 11.4 0 Calma 4 Norte 0 -- -- 96
2019-04-17 03:00:00 11.9 3 Norte 4 Norte 0 -- -- 96
2019-04-17 02:00:00 12.9 0 Calma 4 Nordeste 0 -- -- 93
2019-04-17 01:00:00 13.2 2 Nordeste 6 Nordeste 0 -- -- 89
2019-04-17 00:00:00 13.2 0 Calma 6 Nordeste 0 -- -- 89
2019-04-16 23:00:00 14.2 0 Calma 9 Nordeste 0 -- -- 91
2019-04-16 22:00:00 14.6 0 Calma 6 Nordeste 0 -- -- 89
2019-04-16 21:00:00 14.9 3 Nordeste 9 Nordeste 0 -- -- 87
2019-04-16 20:00:00 15.7 4 Este 19 Sudeste 0 -- -- 82
2019-04-16 19:00:00 16.4 10 Sudeste 23 Sudeste 0 -- -- 76
2019-04-16 18:00:00 16.7 12 Este 24 Sudeste 0 -- -- 72
2019-04-16 17:00:00 16.9 4 Este 33 Sudeste 0 -- -- 73
2019-04-16 16:00:00 17.4 15 Este 36 Sudeste 0 -- -- 72
2019-04-16 15:00:00 17.9 9 Este 25 Sudeste 0 -- -- 59
2019-04-16 14:00:00 17.6 9 Este 25 Este 0 -- -- 62
2019-04-16 13:00:00 17.4 5 Este 22 Este 0 -- -- 61
2019-04-16 12:00:00 17.3 6 Nordeste 23 Nordeste 0 -- -- 59
2019-04-16 11:00:00 16.3 10 Norte 29 Norte 0 -- -- 65
2019-04-16 10:00:00 14.5 16 Norte 30 Norte 0 -- -- 73
2019-04-16 09:00:00 14 18 Norte 29 Norte 0 -- -- 77
2019-04-16 08:00:00 14 5 Norte 17 Norte 0 -- -- 76
2019-04-16 07:00:00 13.3 3 Nordeste 14 Nordeste 0 -- -- 75
2019-04-16 06:00:00 13.4 5 Nordeste 18 Nordeste 0 -- -- 74
2019-04-16 05:00:00 13.3 5 Nordeste 23 Este 0 -- -- 78
2019-04-16 04:00:00 13.6 3 Nordeste 15 Nordeste 0 -- -- 82
2019-04-16 03:00:00 14 4 Nordeste 10 Nordeste 0 -- -- 82
2019-04-16 02:00:00 13.8 4 Nordeste 9 Nordeste 0 -- -- 81
2019-04-16 01:00:00 13.9 2 Este 8 Nordeste 0 -- -- 81
2019-04-16 00:00:00 13.4 3 Este 15 Este 0 -- -- 79
2019-04-15 23:00:00 13.6 8 Este 20 Sudeste 0 -- -- 74
2019-04-15 22:00:00 13.9 6 Este 18 Sudeste 0 -- -- 74
2019-04-15 21:00:00 14.1 5 Este 21 Este 0 -- -- 73
2019-04-15 20:00:00 14.8 9 Este 25 Sudeste 0 -- -- 70
2019-04-15 19:00:00 15.5 7 Este 26 Sudeste 0 -- -- 67
2019-04-15 18:00:00 15.7 8 Este 29 Sudeste 0 -- -- 66
2019-04-15 17:00:00 16.2 12 Este 31 Este 0 -- -- 64
2019-04-15 16:00:00 16.8 9 Este 27 Sudeste 0 -- -- 62
2019-04-15 15:00:00 17 8 Este 31 Sudeste 0 -- -- 61
2019-04-15 14:00:00 16.3 6 Este 26 Sudeste 0 -- -- 66
2019-04-15 13:00:00 16.2 7 Este 24 Sudeste 0 -- -- 65
2019-04-15 12:00:00 16.5 5 Este 21 Sudeste 0 -- -- 70
2019-04-15 11:00:00 16.4 5 Este 21 Este 0 -- -- 73
2019-04-15 10:00:00 15.4 4 Este 14 Nordeste 0 -- -- 81
2019-04-15 09:00:00 14.7 4 Nordeste 12 Este 0 -- -- 82
2019-04-15 08:00:00 12.3 0 Calma 10 Nordeste 0 -- -- 91
2019-04-15 07:00:00 13.3 2 Nordeste 14 Nordeste 0 -- -- 88
2019-04-15 06:00:00 13.5 5 Nordeste 15 Nordeste 0 -- -- 86
2019-04-15 05:00:00 13.6 6 Nordeste 18 Nordeste 0 -- -- 89
2019-04-15 04:00:00 13.8 5 Nordeste 23 Este 0 -- -- 93
2019-04-15 03:00:00 14 13 Nordeste 37 Nordeste 0 -- -- 93
2019-04-15 02:00:00 13.8 13 Nordeste 29 Nordeste 0 -- -- 93
2019-04-15 01:00:00 13.7 8 Nordeste 20 Nordeste 0 -- -- 93
2019-04-15 00:00:00 14 4 Nordeste 12 Nordeste 0 -- -- 93
2019-04-14 23:00:00 14.1 7 Nordeste 15 Nordeste 0 -- -- 93
2019-04-14 22:00:00 14.4 4 Nordeste 11 Nordeste 0 -- -- 92
2019-04-14 21:00:00 14.7 5 Nordeste 15 Nordeste 0 -- -- 92
2019-04-14 20:00:00 15.5 6 Nordeste 20 Nordeste 0 -- -- 84
2019-04-14 19:00:00 16.3 6 Nordeste 17 Nordeste 0 -- -- 81
2019-04-14 18:00:00 17.2 4 Este 18 Sudeste 0 -- -- 75
2019-04-14 17:00:00 17.5 4 Este 23 Este 0 -- -- 75
2019-04-14 16:00:00 17.7 14 Sudeste 26 Sudeste 0 -- -- 71
2019-04-14 15:00:00 17.7 11 Sudeste 25 Este 0 -- -- 71
2019-04-14 14:00:00 18.3 6 Este 32 Sudeste 0 -- -- 61
2019-04-14 13:00:00 17.3 23 Sudeste 31 Sudeste 0 -- -- 66
2019-04-14 12:00:00 18 15 Sudeste 24 Sudeste 0 -- -- 48
2019-04-14 11:00:00 18.4 0 Calma 5 Oeste 0 -- -- 39
2019-04-14 10:00:00 13.5 0 Calma 7 Oeste 0 -- -- 59
2019-04-14 09:00:00 10.9 3 Oeste 8 Oeste 0 -- -- 77
2019-04-14 08:00:00 8.8 0 Calma 10 Sudoeste 0 -- -- 85
2019-04-14 07:00:00 7.5 2 Noroeste 8 Noroeste 0 -- -- 90
2019-04-14 06:00:00 7.8 0 Calma -- -- 0 -- -- 93
2019-04-14 05:00:00 9.5 0 Calma 6 Norte 0 -- -- 96
2019-04-14 04:00:00 10.9 5 Norte 9 Norte 0 -- -- 96
2019-04-14 03:00:00 11.7 4 Norte 9 Noroeste 0 -- -- 91
2019-04-14 02:00:00 12.8 5 Sudoeste 11 Sudoeste 0 -- -- 93
2019-04-14 01:00:00 13.6 5 Sudoeste 21 Sudoeste 0 -- -- 93
2019-04-14 00:00:00 13.6 15 Sudoeste 21 Sudoeste 0 -- -- 89
2019-04-13 23:00:00 14.1 15 Sudoeste 24 Sudoeste 0 -- -- 87
2019-04-13 22:00:00 14.5 19 Sudoeste 27 Sudoeste 0 -- -- 87
2019-04-13 21:00:00 14.8 18 Sudoeste 29 Sudoeste 0 -- -- 78
2019-04-13 20:00:00 16.3 21 Sudoeste 31 Sur 0 -- -- 59
2019-04-13 19:00:00 17.5 26 Sudoeste 33 Sudoeste 0 -- -- 50
2019-04-13 18:00:00 18.2 26 Sur 36 Sudoeste 0 -- -- 49
2019-04-13 17:00:00 18.3 26 Sur 36 Sudoeste 0 -- -- 49
2019-04-13 16:00:00 18.9 23 Sur 32 Sur 0 -- -- 44
2019-04-13 15:00:00 19.2 24 Sur 32 Sur 0 -- -- 44
2019-04-13 14:00:00 19.4 21 Sur 27 Sur 0 -- -- 38
2019-04-13 13:00:00 19.9 8 Norte 28 Norte 0 -- -- 38
2019-04-13 12:00:00 18.4 12 Norte 22 Norte 0 -- -- 40
2019-04-13 11:00:00 16.5 9 Norte 19 Norte 0 -- -- 43
2019-04-13 10:00:00 14.2 9 Norte 23 Noroeste 0 -- -- 49
2019-04-13 09:00:00 12.3 9 Noroeste 22 Noroeste 0 -- -- 61
2019-04-13 08:00:00 9.8 4 Noroeste 18 Noroeste 0 -- -- 70
2019-04-13 07:00:00 9.5 8 Noroeste 15 Noroeste 0 -- -- 75
2019-04-13 06:00:00 9.4 4 Noroeste 8 Noroeste 0 -- -- 79
2019-04-13 05:00:00 10.6 6 Noroeste 13 Norte 0 -- -- 79
2019-04-13 04:00:00 13 4 Nordeste 15 Nordeste 0 -- -- 70
2019-04-13 03:00:00 12.6 6 Nordeste 14 Nordeste 0 -- -- 88
2019-04-13 02:00:00 12.4 0 Calma 5 Sudeste 0 -- -- 91
2019-04-13 01:00:00 12.9 0 Calma 10 Norte 0 -- -- 83
2019-04-13 00:00:00 13.3 8 Sudoeste 18 Sudoeste 0 -- -- 82
2019-04-12 23:00:00 13.9 14 Sudoeste 25 Sudoeste 0 -- -- 75
2019-04-12 22:00:00 14.4 19 Sudoeste 29 Sudoeste 0 -- -- 70
2019-04-12 21:00:00 14.6 18 Sudoeste 29 Sudoeste 0 -- -- 70
2019-04-12 20:00:00 15.7 23 Sudoeste 32 Sudoeste 0 -- -- 61
2019-04-12 19:00:00 17.1 23 Sur 30 Sur 0 -- -- 58
2019-04-12 18:00:00 18.1 21 Sur 31 Sur 0 -- -- 56
2019-04-12 17:00:00 19.2 23 Sur 30 Sudoeste 0 -- -- 50
2019-04-12 16:00:00 18.6 18 Sur 29 Sur 0 -- -- 52
2019-04-12 15:00:00 19.3 17 Sur 30 Sur 0 -- -- 47
2019-04-12 14:00:00 20.3 17 Sur 25 Sur 0 -- -- 44
2019-04-12 13:00:00 19.7 9 Noroeste 26 Oeste 0 -- -- 43
2019-04-12 12:00:00 18.7 12 Noroeste 31 Noroeste 0 -- -- 47
2019-04-12 11:00:00 16.3 8 Noroeste 19 Noroeste 0 -- -- 51
2019-04-12 10:00:00 14.3 5 Noroeste 18 Noroeste 0 -- -- 58
2019-04-12 09:00:00 13.4 5 Noroeste 16 Noroeste 0 -- -- 61
2019-04-12 08:00:00 11.9 9 Oeste 26 Noroeste 0 -- -- 63
2019-04-12 07:00:00 11.7 10 Noroeste 20 Noroeste 0 -- -- 63
2019-04-12 06:00:00 11.7 5 Noroeste 17 Oeste 0 -- -- 63
2019-04-12 05:00:00 12.4 10 Noroeste 27 Oeste 0 -- -- 60
2019-04-12 04:00:00 12.7 14 Noroeste 30 Noroeste 0 -- -- 58
2019-04-12 03:00:00 12.7 10 Noroeste 35 Noroeste 0 -- -- 58
2019-04-12 02:00:00 13.3 15 Noroeste 40 Oeste 0 -- -- 58
2019-04-12 01:00:00 13.7 15 Noroeste 37 Noroeste 0 -- -- 56
2019-04-12 00:00:00 14.7 15 Noroeste 44 Oeste 0 -- -- 54
2019-04-11 23:00:00 15.3 21 Noroeste 58 Noroeste 0 -- -- 50
2019-04-11 22:00:00 15.9 14 Noroeste 44 Noroeste 0 -- -- 49
2019-04-11 21:00:00 16.8 20 Noroeste 42 Oeste 0 -- -- 47
2019-04-11 20:00:00 18.7 18 Noroeste 43 Noroeste 0 -- -- 43
2019-04-11 19:00:00 18.9 14 Sudoeste -- -- -- -- -- 45
2019-04-11 18:00:00 -- -- -- -- -- -- -- -- --
2019-04-11 17:00:00 -- -- -- -- -- -- -- -- --
2019-04-11 16:00:00 -- -- -- -- -- -- -- -- --
2019-04-11 15:00:00 -- -- -- -- -- -- -- -- --
2019-04-11 14:00:00 -- -- -- -- -- -- -- -- --
2019-04-11 13:00:00 -- -- -- -- -- -- -- -- --
2019-04-11 12:00:00 -- -- -- -- -- -- -- -- --
2019-04-11 11:00:00 -- -- -- -- -- -- -- -- --
2019-04-11 10:00:00 -- -- -- -- -- -- -- -- --
2019-04-11 09:00:00 -- -- -- -- -- -- -- -- --
2019-04-11 08:00:00 -- -- -- -- -- -- -- -- --
2019-04-11 07:00:00 11.5 12 Noroeste 32 Noroeste 0 -- -- 66
2019-04-11 06:00:00 11.8 9 Noroeste 29 Noroeste 0 -- -- 66
2019-04-11 05:00:00 12 10 Noroeste 30 Noroeste 0 -- -- 67
2019-04-11 04:00:00 11.9 12 Noroeste 32 Noroeste 0 -- -- 66
2019-04-11 03:00:00 12.5 9 Noroeste 22 Noroeste 0 -- -- 66
2019-04-11 02:00:00 12.8 12 Noroeste 24 Noroeste 0 -- -- 66
2019-04-11 01:00:00 13.6 12 Noroeste 22 Oeste 0 -- -- 66
2019-04-11 00:00:00 13.4 3 Oeste 13 Oeste 0.1 -- -- 80
2019-04-10 23:00:00 14.2 0 Calma 13 Nordeste 0 -- -- 76
2019-04-10 22:00:00 14.9 6 Nordeste 18 Oeste 0.4 -- -- 71
2019-04-10 21:00:00 15.9 0 Calma 27 Sudoeste 0 -- -- 66
2019-04-10 20:00:00 16.6 22 Sudoeste 29 Sur 0 -- -- 53
2019-04-10 19:00:00 18.4 21 Sudoeste 30 Sudoeste 0 -- -- 46
2019-04-10 18:00:00 18.1 23 Sudoeste 32 Sudoeste 0 -- -- 48
2019-04-10 17:00:00 18.6 23 Sudoeste 31 Sur 0 -- -- 52
2019-04-10 16:00:00 19.5 10 Noroeste 33 Oeste 0 -- -- 38
2019-04-10 15:00:00 19.8 11 Noroeste 38 Noroeste 0 -- -- 40
2019-04-10 14:00:00 18.7 16 Noroeste 40 Norte 0 -- -- 43
2019-04-10 13:00:00 18.6 16 Noroeste 44 Noroeste 0 -- -- 44
2019-04-10 12:00:00 17.8 18 Noroeste 40 Noroeste 0 -- -- 46
2019-04-10 11:00:00 16.7 12 Noroeste 41 Oeste 0 -- -- 50
2019-04-10 10:00:00 15 14 Noroeste 42 Norte 0 -- -- 54
2019-04-10 09:00:00 13.7 10 Noroeste 31 Norte 0 -- -- 59
2019-04-10 08:00:00 12.5 10 Noroeste 27 Noroeste 0 -- -- 61
2019-04-10 07:00:00 12.4 11 Noroeste 31 Noroeste 0 -- -- 61
2019-04-10 06:00:00 12.7 10 Noroeste 27 Noroeste 0 -- -- 61
2019-04-10 05:00:00 13 9 Noroeste 34 Noroeste 0 -- -- 60
2019-04-10 04:00:00 13.5 9 Noroeste 44 Noroeste 0 -- -- 60
2019-04-10 03:00:00 13.6 13 Noroeste 31 Noroeste 0 -- -- 59
2019-04-10 02:00:00 13.5 9 Noroeste 30 Noroeste 0 -- -- 59
2019-04-10 01:00:00 14 6 Noroeste 33 Noroeste 0 -- -- 58
2019-04-10 00:00:00 14.5 5 Norte 18 Norte 0 -- -- 59
2019-04-09 23:00:00 15.2 6 Norte 25 Norte 0 -- -- 58
2019-04-09 22:00:00 15.5 9 Noroeste 20 Noroeste 0 -- -- 50
2019-04-09 21:00:00 15.4 10 Sudoeste 17 Oeste 0 -- -- 64
2019-04-09 20:00:00 17.1 9 Sudoeste 23 Sudoeste 0 -- -- 49
2019-04-09 19:00:00 18 17 Sudoeste 24 Sudoeste 0 -- -- 48
2019-04-09 18:00:00 17.7 21 Sudoeste 36 Sudoeste 0 -- -- 55
2019-04-09 17:00:00 19.9 26 Sur 36 Sur 0 -- -- 48
2019-04-09 16:00:00 19.4 27 Sur 37 Sudoeste 0 -- -- 40
2019-04-09 15:00:00 19.9 27 Sur 37 Sur 0 -- -- 45
2019-04-09 14:00:00 20.1 21 Sur 38 Sur 0 -- -- 38
2019-04-09 13:00:00 19.4 14 Oeste 32 Oeste 0 -- -- 37
2019-04-09 12:00:00 18.7 11 Noroeste 35 Oeste 0 -- -- 43
2019-04-09 11:00:00 17 12 Noroeste 40 Noroeste 0 -- -- 50
2019-04-09 10:00:00 14.9 17 Noroeste 38 Oeste 0 -- -- 56
2019-04-09 09:00:00 13.5 10 Noroeste 25 Noroeste 0 -- -- 66
2019-04-09 08:00:00 12.3 11 Noroeste 29 Noroeste 0 -- -- 71
2019-04-09 07:00:00 11.8 9 Noroeste 23 Noroeste 0 -- -- 74
2019-04-09 06:00:00 11 5 Norte 11 Noroeste 0 -- -- 92
2019-04-09 05:00:00 11.7 7 Oeste 12 Oeste 0 -- -- 93
2019-04-09 04:00:00 11.5 4 Norte 12 Norte 0 -- -- 94
2019-04-09 03:00:00 11.7 5 Noroeste 10 Oeste 0 -- -- 93
2019-04-09 02:00:00 12.6 3 Noroeste 9 Noroeste 0 -- -- 87
2019-04-09 01:00:00 13.6 2 Norte 10 Oeste 0 -- -- 88
2019-04-09 00:00:00 13.6 4 Noroeste 20 Sudoeste 0 -- -- 92
2019-04-08 23:00:00 14.5 12 Sur 19 Sur 0 -- -- 78
2019-04-08 22:00:00 14.2 6 Sudoeste 15 Sur 0 -- -- 89
2019-04-08 21:00:00 14.5 7 Sur 11 Sudoeste 0 -- -- 91
2019-04-08 20:00:00 15.3 8 Sudoeste 19 Sudoeste 0.1 -- -- 86
2019-04-08 19:00:00 14.9 18 Oeste 36 Oeste 0.8 -- -- 80
2019-04-08 18:00:00 18.2 17 Sudoeste 28 Sudoeste 0 -- -- 56
2019-04-08 17:00:00 17.7 23 Sudoeste 33 Sur 0 -- -- 58
2019-04-08 16:00:00 18.5 19 Sur 28 Sur 0 -- -- 51
2019-04-08 15:00:00 17.4 15 Sur 23 Sur 0 -- -- 55
2019-04-08 14:00:00 17 14 Sur 20 Sur 0 -- -- 55
2019-04-08 13:00:00 17.5 14 Sudeste 21 Sudeste 0 -- -- 55
2019-04-08 12:00:00 17.5 11 Sudeste 19 Sudeste 0 -- -- 54
2019-04-08 11:00:00 14.8 0 Calma 6 Sudoeste 0 -- -- 62
2019-04-08 10:00:00 12.8 0 Calma 6 Noroeste 0 -- -- 78
2019-04-08 09:00:00 10.5 3 Noroeste 8 Noroeste 0 -- -- 88
2019-04-08 08:00:00 9.2 0 Calma 10 Oeste 0 -- -- 89
2019-04-08 07:00:00 9.1 3 Oeste 7 Oeste 0 -- -- 93
2019-04-08 06:00:00 8.2 2 Noroeste 7 Norte 0 -- -- 93
2019-04-08 05:00:00 8.9 3 Noroeste 6 Noroeste 0 -- -- 93
2019-04-08 04:00:00 9 3 Noroeste 6 Noroeste 0 -- -- 92
2019-04-08 03:00:00 9.4 0 Calma 6 Noroeste 0 -- -- 88
2019-04-08 02:00:00 10 2 Oeste 5 Oeste 0 -- -- 88
2019-04-08 01:00:00 11.5 0 Calma 9 Nordeste 0 -- -- 88
2019-04-08 00:00:00 12.6 0 Calma 10 Nordeste 0 -- -- 87
2019-04-07 23:00:00 12.9 4 Nordeste 13 Nordeste 0 -- -- 85
2019-04-07 22:00:00 13.7 2 Nordeste 17 Norte 0 -- -- 81
2019-04-07 21:00:00 14.7 4 Nordeste 26 Norte 0 -- -- 70
2019-04-07 20:00:00 17.5 13 Noroeste 30 Noroeste 0 -- -- 38
2019-04-07 19:00:00 18.8 9 Noroeste 38 Noroeste 0 -- -- 36
2019-04-07 18:00:00 19.6 15 Noroeste 46 Oeste 0 -- -- 34
2019-04-07 17:00:00 19.6 12 Noroeste 43 Noroeste 0 -- -- 35
2019-04-07 16:00:00 18.8 17 Noroeste 45 Noroeste 0 -- -- 37
2019-04-07 15:00:00 18.5 14 Noroeste 49 Noroeste 0 -- -- 39
2019-04-07 14:00:00 18.2 17 Noroeste 51 Noroeste 0 -- -- 40
2019-04-07 13:00:00 16.3 22 Noroeste 55 Noroeste 0 -- -- 44
2019-04-07 12:00:00 15.4 20 Noroeste 52 Norte 0 -- -- 49
2019-04-07 11:00:00 14.2 21 Noroeste 47 Oeste 0 -- -- 53
2019-04-07 10:00:00 12.9 12 Noroeste 43 Noroeste 0 -- -- 56
2019-04-07 09:00:00 12.3 12 Noroeste 31 Noroeste 0 -- -- 60
2019-04-07 08:00:00 10.7 9 Noroeste 26 Noroeste 0 -- -- 65
2019-04-07 07:00:00 9.1 8 Noroeste 17 Oeste 0 -- -- 70
2019-04-07 06:00:00 8.2 4 Noroeste 9 Noroeste 0 -- -- 80
2019-04-07 05:00:00 7.1 4 Oeste 6 Oeste 0 -- -- 82
2019-04-07 04:00:00 7.1 0 Calma -- -- 0 -- -- 83
2019-04-07 03:00:00 8.2 0 Calma 8 Noroeste 0 -- -- 83
2019-04-07 02:00:00 8.7 3 Norte 10 Oeste 0 -- -- 86
2019-04-07 01:00:00 8.9 4 Noroeste 10 Oeste 0 -- -- 87
2019-04-07 00:00:00 9.1 2 Noroeste 13 Noroeste 0 -- -- 83
2019-04-06 23:00:00 9.8 6 Noroeste 15 Oeste 0 -- -- 81
2019-04-06 22:00:00 10.7 11 Oeste 23 Oeste 0 -- -- 76
2019-04-06 21:00:00 12 12 Sudoeste 19 Noroeste 0 -- -- 56
2019-04-06 20:00:00 13.1 9 Noroeste 45 Oeste 0 -- -- 56
2019-04-06 19:00:00 13.9 26 Oeste 52 Oeste 0 -- -- 53
2019-04-06 18:00:00 16.9 19 Sudeste 27 Sudeste 0 -- -- 50
2019-04-06 17:00:00 17.7 18 Sur 25 Sur 0 -- -- 42
2019-04-06 16:00:00 16 14 Sur 31 Sudeste 0 -- -- 43
2019-04-06 15:00:00 16.7 23 Sudeste 30 Sur 0 -- -- 42
2019-04-06 14:00:00 17.4 21 Sur 29 Sur 0 -- -- 40
2019-04-06 13:00:00 17.2 12 Sudoeste 26 Oeste 0 -- -- 38
2019-04-06 12:00:00 15.5 8 Oeste 19 Oeste 0 -- -- 40
2019-04-06 11:00:00 14.4 8 Oeste 15 Oeste 0 -- -- 43
2019-04-06 10:00:00 12.5 8 Noroeste 15 Noroeste 0 -- -- 58
2019-04-06 09:00:00 9.7 4 Noroeste 16 Noroeste 0 -- -- 76
2019-04-06 08:00:00 8.5 0 Calma 10 Sudoeste 0 -- -- 76
2019-04-06 07:00:00 7.2 6 Sudoeste 10 Sudoeste 0 -- -- 76
2019-04-06 06:00:00 8.2 0 Calma 12 Norte 0 -- -- 79
2019-04-06 05:00:00 9.2 9 Noroeste 22 Noroeste 0 -- -- 74
2019-04-06 04:00:00 9.5 13 Noroeste 22 Noroeste 0 -- -- 73
2019-04-06 03:00:00 10.3 14 Noroeste 23 Noroeste 0 -- -- 79
2019-04-06 02:00:00 10 5 Noroeste 19 Sur 0 -- -- 92
2019-04-06 01:00:00 11.5 14 Sur 24 Sur 0 -- -- 87
2019-04-06 00:00:00 11.8 14 Sudoeste 23 Sudoeste 0 -- -- 90
2019-04-05 23:00:00 11.5 13 Sudoeste 19 Sudeste 0 -- -- 91
2019-04-05 22:00:00 11.9 13 Sur 25 Sudoeste 0.7 -- -- 86
2019-04-05 21:00:00 12.4 18 Sudoeste 42 Sudoeste 0.3 -- -- 78
2019-04-05 20:00:00 14 20 Sur 35 Sur 0 -- -- 77
2019-04-05 19:00:00 15.1 22 Sur 30 Sur 0 -- -- 69
2019-04-05 18:00:00 15.7 23 Sur 33 Sur 0 -- -- 67
2019-04-05 17:00:00 17.9 23 Sur 30 Sur 0 -- -- 55
2019-04-05 16:00:00 17.1 22 Sur 34 Sur 0 -- -- 56
2019-04-05 15:00:00 17.4 26 Sur 35 Sur 0 -- -- 55
2019-04-05 14:00:00 17.2 21 Sur 33 Sur 0 -- -- 60
2019-04-05 13:00:00 16.5 15 Sur 25 Sur 0 -- -- 63
2019-04-05 12:00:00 15.3 12 Sudoeste 23 Sudoeste 0 -- -- 66
2019-04-05 11:00:00 14.1 11 Sudoeste 26 Sudoeste 0 -- -- 75
2019-04-05 10:00:00 13.2 15 Sudoeste 23 Sudoeste 0 -- -- 82
2019-04-05 09:00:00 13.1 15 Sudoeste 29 Sur 0 -- -- 81
2019-04-05 08:00:00 12.2 11 Sudoeste 25 Sur 0 -- -- 85
2019-04-05 07:00:00 12.1 15 Sur 23 Sur 0 -- -- 83
2019-04-05 06:00:00 12 17 Sur 24 Sur 0 -- -- 83
2019-04-05 05:00:00 10.2 4 Norte 8 Norte 0 -- -- 85
2019-04-05 04:00:00 9.3 4 Norte 6 Norte 0 -- -- 85
2019-04-05 03:00:00 9.7 0 Calma 8 Oeste 0 -- -- 83
2019-04-05 02:00:00 9.4 4 Sudoeste 11 Sudoeste 0 -- -- 80
2019-04-05 01:00:00 10.1 8 Sudoeste 18 Sudoeste 0 -- -- 74
2019-04-05 00:00:00 10.2 14 Sudoeste 21 Sudoeste 0 -- -- 67
2019-04-04 23:00:00 10.7 15 Sudoeste 24 Sudoeste 0 -- -- 60
2019-04-04 22:00:00 11.4 18 Sur 23 Sudoeste 0 -- -- 54
2019-04-04 21:00:00 10.9 13 Sur 22 Sur 0 -- -- 52
2019-04-04 20:00:00 12.5 19 Sur 27 Sur 0 -- -- 48
2019-04-04 19:00:00 14 18 Sur 35 Sur 0 -- -- 44
2019-04-04 18:00:00 14.5 27 Sur 36 Sur 0 -- -- 40
2019-04-04 17:00:00 15.5 17 Sur 33 Sudeste 0 -- -- 36
2019-04-04 16:00:00 16.3 15 Sur 26 Sur 0 -- -- 35
2019-04-04 15:00:00 15.3 13 Sudoeste 32 Noroeste 0 -- -- 34
2019-04-04 14:00:00 16 10 Noroeste 40 Oeste 0 -- -- 36
2019-04-04 13:00:00 14.6 15 Noroeste 37 Noroeste 0 -- -- 38
2019-04-04 12:00:00 13.5 16 Noroeste 59 Noroeste 0 -- -- 40
2019-04-04 11:00:00 12 19 Noroeste 48 Noroeste 0 -- -- 45
2019-04-04 10:00:00 9.9 13 Noroeste 46 Noroeste 0 -- -- 52
2019-04-04 09:00:00 8.6 17 Noroeste 40 Noroeste 0 -- -- 57
2019-04-04 08:00:00 7.6 15 Noroeste 42 Noroeste 0 -- -- 59
2019-04-04 07:00:00 7.5 20 Noroeste 54 Noroeste 0 -- -- 60
2019-04-04 06:00:00 8.1 20 Noroeste 61 Noroeste 0 -- -- 58
2019-04-04 05:00:00 8.1 14 Noroeste 45 Oeste 0 -- -- 59
2019-04-04 04:00:00 8.5 21 Noroeste 54 Noroeste 0 -- -- 59
2019-04-04 03:00:00 9.1 14 Noroeste 32 Noroeste 0 -- -- 59
2019-04-04 02:00:00 9.8 11 Noroeste 36 Noroeste 0 -- -- 57
2019-04-04 01:00:00 10 14 Noroeste 44 Noroeste 0.1 -- -- 56
2019-04-04 00:00:00 10 14 Noroeste 35 Noroeste 0 -- -- 60
2019-04-03 23:00:00 10.1 12 Noroeste 50 Noroeste 0 -- -- 66
2019-04-03 22:00:00 11 21 Noroeste 39 Noroeste 0 -- -- 70
2019-04-03 21:00:00 10.6 18 Norte 31 Norte 1 -- -- 75
2019-04-03 20:00:00 10.5 18 Norte 34 Norte 0.3 -- -- 76
2019-04-03 19:00:00 11.9 15 Noroeste 36 Norte 0.2 -- -- 70
2019-04-03 18:00:00 12.6 26 Noroeste 49 Noroeste 0.7 -- -- 68
2019-04-03 17:00:00 14.2 18 Norte 43 Noroeste 0 -- -- 67
2019-04-03 16:00:00 16.2 20 Norte 36 Noroeste 0 -- -- 53
2019-04-03 15:00:00 16.4 6 Norte 22 Norte 0 -- -- 60
2019-04-03 14:00:00 15.4 5 Nordeste 32 Norte 0 -- -- 63
2019-04-03 13:00:00 16.4 14 Norte 32 Norte 0 -- -- 55
2019-04-03 12:00:00 15.1 13 Norte 27 Norte 0 -- -- 65
2019-04-03 11:00:00 14.5 6 Norte 17 Norte 0 -- -- 83
2019-04-03 10:00:00 14.1 4 Norte 15 Norte 0 -- -- 88
2019-04-03 09:00:00 13.5 8 Norte 14 Norte 0 -- -- 96
2019-04-03 08:00:00 12.5 2 Norte 7 Norte 0 -- -- 96
2019-04-03 07:00:00 13 0 Calma 5 Norte 0 -- -- 95
2019-04-03 06:00:00 12.9 0 Calma 6 Nordeste 0 -- -- 95
2019-04-03 05:00:00 13.4 3 Nordeste 11 Nordeste 0 -- -- 96
2019-04-03 04:00:00 13.5 3 Nordeste 16 Nordeste 0 -- -- 95
2019-04-03 03:00:00 12.9 3 Norte 9 Nordeste 0 -- -- 96
2019-04-03 02:00:00 12.1 3 Norte 6 Norte 0 -- -- 94
2019-04-03 01:00:00 13.4 0 Calma 4 Nordeste 0 -- -- 93
2019-04-03 00:00:00 13.8 0 Calma 15 Sudoeste 0 -- -- 91
2019-04-02 23:00:00 14.1 10 Sudoeste 17 Sur 0 -- -- 90
2019-04-02 22:00:00 14.5 12 Sudoeste 22 Sudoeste 0 -- -- 82
2019-04-02 21:00:00 14.9 14 Sudoeste 23 Sur 0 -- -- 85
2019-04-02 20:00:00 15 16 Sur 25 Sur 0 -- -- 81
2019-04-02 19:00:00 17.8 18 Sur 26 Sudoeste 0 -- -- 60
2019-04-02 18:00:00 18.4 20 Sudoeste 29 Sudoeste 0 -- -- 62
2019-04-02 17:00:00 18 19 Sudoeste 27 Sudoeste 0 -- -- 70
2019-04-02 16:00:00 16.9 19 Sur 25 Sur 0 -- -- 74
2019-04-02 15:00:00 17.3 17 Sur 30 Sur 0 -- -- 72
2019-04-02 14:00:00 16.6 13 Sur 24 Sur 0 -- -- 71
2019-04-02 13:00:00 16.8 15 Sur 24 Sudoeste 0 -- -- 72
2019-04-02 12:00:00 15.6 13 Sudoeste 17 Sudoeste 0 -- -- 73
2019-04-02 11:00:00 14.1 5 Oeste 10 Sudoeste 0 -- -- 78
2019-04-02 10:00:00 12.7 0 Calma 6 Oeste 0 -- -- 78
2019-04-02 09:00:00 9.6 0 Calma 7 Noroeste 0 -- -- 91
2019-04-02 08:00:00 8.6 4 Noroeste 9 Oeste 0 -- -- 93
2019-04-02 07:00:00 8.2 0 Calma 4 Noroeste 0 -- -- 89
2019-04-02 06:00:00 9.3 0 Calma 7 Noroeste 0 -- -- 88
2019-04-02 05:00:00 11 3 Oeste 5 Oeste 0 -- -- 84
2019-04-02 04:00:00 11.5 3 Noroeste 9 Oeste 0 -- -- 85
2019-04-02 03:00:00 12.1 5 Oeste 11 Sudoeste 0 -- -- 89
2019-04-02 02:00:00 12.5 6 Sudoeste 8 Sudoeste 0 -- -- 88
2019-04-02 01:00:00 13.2 4 Sudoeste 12 Sudoeste 0 -- -- 89
2019-04-02 00:00:00 13.3 9 Sur 13 Sudoeste 0 -- -- 89
2019-04-01 23:00:00 13.2 9 Sur 11 Sur 0 -- -- 87
2019-04-01 22:00:00 13.7 8 Sur 12 Sur 0 -- -- 85
2019-04-01 21:00:00 13.6 7 Sur 13 Sur 0 -- -- 75
2019-04-01 20:00:00 14.4 11 Sur 14 Sur 0 -- -- 66
2019-04-01 19:00:00 15.3 10 Sur 15 Sur 0 -- -- 60
2019-04-01 18:00:00 16 10 Sur 14 Sur 0 -- -- 59
2019-04-01 17:00:00 16.3 11 Sudeste 18 Sudeste 0 -- -- 58
2019-04-01 16:00:00 16.1 12 Sudeste 20 Sudeste 0 -- -- 58
2019-04-01 15:00:00 16.8 15 Sudeste 22 Sudeste 0 -- -- 49
2019-04-01 14:00:00 16.7 3 Norte 11 Norte 0 -- -- 52
2019-04-01 13:00:00 14.7 4 Norte 17 Norte 0 -- -- 60
2019-04-01 12:00:00 14.4 9 Norte 24 Noroeste 0 -- -- 66
2019-04-01 11:00:00 13.5 11 Noroeste 21 Noroeste 0 -- -- 77
2019-04-01 10:00:00 12.5 9 Noroeste 18 Noroeste 0 -- -- 87
2019-04-01 09:00:00 12.1 12 Noroeste 19 Noroeste 0.1 -- -- 88
2019-04-01 08:00:00 11.8 9 Norte 18 Norte 0 -- -- 89
2019-04-01 07:00:00 11.9 10 Noroeste 19 Noroeste 0.1 -- -- 89
2019-04-01 06:00:00 12.1 10 Noroeste 17 Noroeste 0 -- -- 89
2019-04-01 05:00:00 12.3 9 Norte 17 Norte 0 -- -- 89
2019-04-01 04:00:00 12.7 5 Norte 14 Nordeste 0 -- -- 83
2019-04-01 03:00:00 12.6 5 Nordeste 24 Nordeste 0 -- -- 80
2019-04-01 02:00:00 12.9 6 Nordeste 19 Nordeste 0.1 -- -- 93
2019-04-01 01:00:00 13 9 Nordeste 22 Nordeste 0.1 -- -- 93
2019-04-01 00:00:00 13.3 9 Nordeste 22 Nordeste 0.1 -- -- 92
2019-03-31 23:00:00 13.1 8 Nordeste 23 Nordeste 0.1 -- -- 93
2019-03-31 22:00:00 13.1 9 Nordeste 21 Nordeste 0.1 -- -- 92
2019-03-31 21:00:00 13.4 6 Nordeste 27 Nordeste 0 -- -- 91
2019-03-31 20:00:00 13.3 10 Nordeste 27 Nordeste 0.2 -- -- 92
2019-03-31 19:00:00 13.3 11 Nordeste 24 Nordeste 0.3 -- -- 91
2019-03-31 18:00:00 13.5 7 Nordeste 24 Nordeste 0.3 -- -- 91
2019-03-31 17:00:00 13.4 8 Nordeste 23 Nordeste 0.5 -- -- 89
2019-03-31 16:00:00 14.6 11 Nordeste 30 Nordeste 0 -- -- 76
2019-03-31 15:00:00 15.2 12 Nordeste 32 Nordeste 0 -- -- 72
2019-03-31 14:00:00 14.8 15 Nordeste 33 Nordeste 0 -- -- 80
2019-03-31 13:00:00 14.6 12 Nordeste 28 Nordeste 0 -- -- 80
2019-03-31 12:00:00 14 12 Nordeste 29 Nordeste 0 -- -- 80
2019-03-31 11:00:00 13.7 9 Nordeste 26 Nordeste 0 -- -- 78
2019-03-31 10:00:00 13.2 6 Nordeste 17 Nordeste 0 -- -- 79
2019-03-31 09:00:00 13 5 Nordeste 19 Nordeste 0 -- -- 83
2019-03-31 08:00:00 12.4 7 Nordeste 19 Nordeste 0 -- -- 82
2019-03-31 07:00:00 12 4 Nordeste 18 Nordeste 0 -- -- 82
2019-03-31 06:00:00 12.1 5 Nordeste 15 Este 0 -- -- 83
2019-03-31 05:00:00 12.3 3 Nordeste 13 Nordeste 0 -- -- 86
2019-03-31 03:00:00 12.6 5 Nordeste 16 Nordeste 0 -- -- 82
2019-03-31 01:00:00 12.3 5 Nordeste 12 Nordeste 0 -- -- 80
2019-03-31 00:00:00 12.1 3 Nordeste 9 Nordeste 0 -- -- 81
2019-03-30 23:00:00 11.7 0 Calma 7 Nordeste 0 -- -- 77
2019-03-30 22:00:00 12.4 0 Calma 8 Sudeste 0 -- -- 75
2019-03-30 21:00:00 12.5 0 Calma 9 Sudeste 0 -- -- 71
2019-03-30 20:00:00 13 2 Este 12 Sudeste 0 -- -- 69
2019-03-30 19:00:00 13.9 2 Este 18 Este 0 -- -- 64
2019-03-30 18:00:00 14.8 4 Este 23 Sudeste 0 -- -- 61
2019-03-30 17:00:00 15.3 6 Este 19 Sudeste 0 -- -- 61
2019-03-30 16:00:00 15.6 6 Este 19 Nordeste 0 -- -- 60
2019-03-30 15:00:00 16 6 Nordeste 21 Nordeste 0 -- -- 57
2019-03-30 14:00:00 16 7 Nordeste 21 Nordeste 0 -- -- 61
2019-03-30 13:00:00 15.7 6 Este 23 Nordeste 0 -- -- 60
2019-03-30 12:00:00 15.7 5 Este 19 Este 0 -- -- 57
2019-03-30 11:00:00 15 8 Nordeste 19 Nordeste 0 -- -- 60
2019-03-30 10:00:00 14.6 5 Nordeste 21 Nordeste 0 -- -- 60
2019-03-30 09:00:00 13.2 7 Nordeste 18 Nordeste 0 -- -- 67
2019-03-30 08:00:00 12 9 Nordeste 16 Nordeste 0 -- -- 83
2019-03-30 07:00:00 9 0 Calma 4 Norte 0 -- -- 94
2019-03-30 06:00:00 8.8 0 Calma 6 Norte 0 -- -- 94
2019-03-30 05:00:00 8.1 5 Norte 7 Noroeste 0 -- -- 93
2019-03-30 04:00:00 7.2 3 Noroeste 6 Noroeste 0 -- -- 91
2019-03-30 03:00:00 7.7 3 Noroeste 8 Noroeste 0 -- -- 89
2019-03-30 02:00:00 7.5 4 Noroeste 7 Noroeste 0 -- -- 86
2019-03-30 01:00:00 8 5 Noroeste 7 Noroeste 0 -- -- 83
2019-03-30 00:00:00 8.8 0 Calma -- -- 0 -- -- 83
2019-03-29 23:00:00 10.4 0 Calma -- -- 0 -- -- 82
2019-03-29 22:00:00 12.1 0 Calma 10 Sudeste 0 -- -- 69
2019-03-29 21:00:00 12.7 0 Calma 9 Sudeste 0 -- -- 64
2019-03-29 20:00:00 12.5 0 Calma 10 Sudeste 0 -- -- 60
2019-03-29 19:00:00 14.2 3 Este 19 Sudeste 0 -- -- 59
2019-03-29 18:00:00 15.2 11 Sudeste 22 Sudeste 0 -- -- 54
2019-03-29 17:00:00 16.4 14 Sudeste 26 Sudeste 0 -- -- 38
2019-03-29 16:00:00 16.5 13 Sudeste 26 Sudeste 0 -- -- 48
2019-03-29 15:00:00 16.6 16 Sudeste 28 Sudeste 0 -- -- 58
2019-03-29 14:00:00 16.6 14 Sudeste 29 Sudeste 0 -- -- 59
2019-03-29 13:00:00 16.5 13 Sudeste 26 Sudeste 0 -- -- 60
2019-03-29 12:00:00 15.9 13 Sudeste 24 Sudeste 0 -- -- 59
2019-03-29 11:00:00 15.7 9 Sudeste 18 Sudeste 0 -- -- 61
2019-03-29 10:00:00 14.9 8 Sudeste 16 Sudeste 0 -- -- 71
2019-03-29 09:00:00 11.4 2 Noroeste 7 Noroeste 0 -- -- 89
2019-03-29 08:00:00 7.5 4 Noroeste 6 Noroeste 0 -- -- 97
2019-03-29 07:00:00 8.9 2 Nordeste 6 Nordeste 0 -- -- 97
2019-03-29 06:00:00 8.9 0 Calma 7 Norte 0 -- -- 97
2019-03-29 05:00:00 8.9 4 Norte 6 Norte 0 -- -- 97
2019-03-29 04:00:00 7.2 4 Noroeste 8 Noroeste 0 -- -- 96
2019-03-29 03:00:00 8.7 3 Noroeste 6 Noroeste 0 -- -- 96
2019-03-29 02:00:00 9.3 0 Calma 2 Norte 0 -- -- 92
2019-03-29 01:00:00 10.7 0 Calma 6 Sudeste 0 -- -- 93
2019-03-29 00:00:00 11.4 5 Sudeste 6 Sur 0 -- -- 86
2019-03-28 23:00:00 11.8 5 Sur 8 Sur 0 -- -- 82
2019-03-28 22:00:00 11.7 6 Sur 9 Sur 0 -- -- 81
2019-03-28 21:00:00 11.4 8 Sur 12 Sur 0 -- -- 78
2019-03-28 20:00:00 12.1 10 Sur 16 Sur 0 -- -- 74
2019-03-28 19:00:00 13.8 13 Sur 21 Sur 0 -- -- 67
2019-03-28 18:00:00 15.3 16 Sur 22 Sudeste 0 -- -- 59
2019-03-28 17:00:00 16.1 17 Sudeste 25 Sudeste 0 -- -- 48
2019-03-28 16:00:00 16.9 17 Sudeste 24 Sudeste 0 -- -- 42
2019-03-28 15:00:00 17.3 20 Sudeste 31 Sudeste 0 -- -- 36
2019-03-28 14:00:00 17.6 17 Sudeste 28 Este 0 -- -- 33
2019-03-28 13:00:00 17.7 6 Este 18 Este 0 -- -- 35
2019-03-28 12:00:00 17.9 4 Este 19 Norte 0 -- -- 34
2019-03-28 11:00:00 16.4 10 Norte 24 Norte 0 -- -- 43
2019-03-28 10:00:00 14.3 14 Noroeste 26 Noroeste 0 -- -- 50
2019-03-28 09:00:00 12.2 15 Noroeste 29 Noroeste 0 -- -- 59
2019-03-28 08:00:00 10.9 16 Norte 23 Norte 0 -- -- 62
2019-03-28 07:00:00 9.6 12 Norte 18 Norte 0 -- -- 71
2019-03-28 06:00:00 7.2 9 Noroeste 14 Norte 0 -- -- 92
2019-03-28 05:00:00 7.4 0 Calma 7 Oeste 0 -- -- 96
2019-03-28 04:00:00 7.7 0 Calma 7 Noroeste 0 -- -- 94
2019-03-28 03:00:00 7.1 3 Noroeste 8 Noroeste 0 -- -- 92
2019-03-28 02:00:00 8.7 5 Noroeste 8 Noroeste 0 -- -- 89
2019-03-28 01:00:00 9.6 8 Sur 10 Sur 0 -- -- 83
2019-03-28 00:00:00 10.9 6 Sur 10 Sudeste 0 -- -- 82
2019-03-27 23:00:00 10.9 9 Sudeste 12 Sudeste 0 -- -- 81
2019-03-27 22:00:00 11.1 10 Sur 14 Sur 0 -- -- 80
2019-03-27 21:00:00 11.7 12 Sur 15 Sur 0 -- -- 77
2019-03-27 20:00:00 12.2 12 Sur 20 Sudoeste 0 -- -- 67
2019-03-27 19:00:00 13.9 17 Sur 24 Sur 0 -- -- 60
2019-03-27 18:00:00 15.3 20 Sur 29 Sur 0 -- -- 59
2019-03-27 17:00:00 16.3 22 Sur 31 Sur 0 -- -- 59
2019-03-27 16:00:00 16.7 24 Sur 33 Sudeste 0 -- -- 54
2019-03-27 15:00:00 17.3 22 Sudeste 31 Sudeste 0 -- -- 44
2019-03-27 14:00:00 17.5 19 Sudeste 26 Sudeste 0 -- -- 43
2019-03-27 13:00:00 17.4 15 Sudeste 24 Sudeste 0 -- -- 45
2019-03-27 12:00:00 17.4 4 Norte 14 Nordeste 0 -- -- 43
2019-03-27 11:00:00 16.1 6 Norte 30 Norte 0 -- -- 49
2019-03-27 10:00:00 13.7 17 Norte 29 Norte 0 -- -- 55
2019-03-27 09:00:00 12.1 14 Norte 25 Norte 0 -- -- 62
2019-03-27 08:00:00 10.1 11 Norte 22 Norte 0 -- -- 74
2019-03-27 07:00:00 9.3 11 Norte 21 Norte 0 -- -- 80
2019-03-27 06:00:00 9.2 10 Norte 17 Noroeste 0 -- -- 79
2019-03-27 05:00:00 8.6 3 Noroeste 13 Norte 0 -- -- 82
2019-03-27 04:00:00 9.3 5 Norte 7 Noroeste 0 -- -- 82
2019-03-27 03:00:00 9.4 2 Norte 7 Noroeste 0 -- -- 79
2019-03-27 02:00:00 10.2 2 Noroeste 10 Oeste 0 -- -- 72
2019-03-27 01:00:00 11.4 5 Oeste 14 Sudoeste 0 -- -- 70
2019-03-27 00:00:00 11.2 10 Sudoeste 14 Sudoeste 0 -- -- 64
2019-03-26 23:00:00 12.5 11 Sur 16 Sur 0 -- -- 61
2019-03-26 22:00:00 12.5 13 Sur 20 Sudeste 0 -- -- 60
2019-03-26 21:00:00 13 15 Sudeste 24 Sudeste 0 -- -- 58
2019-03-26 20:00:00 13.5 19 Sudeste 27 Sudeste 0 -- -- 56
2019-03-26 19:00:00 13.9 18 Sudeste 32 Sudeste 0 -- -- 58
2019-03-26 18:00:00 13.9 24 Sudeste 44 Sudeste 0 -- -- 56
2019-03-26 17:00:00 15.8 35 Sudeste 47 Sudeste 0 -- -- 55
2019-03-26 16:00:00 18.4 22 Sudeste 33 Sudeste 0 -- -- 37
2019-03-26 15:00:00 19.4 18 Sudeste 27 Sudeste 0 -- -- 34
2019-03-26 14:00:00 19.8 5 Norte 19 Norte 0 -- -- 34
2019-03-26 13:00:00 18.9 6 Norte 26 Norte 0 -- -- 37
2019-03-26 12:00:00 17.5 15 Norte 33 Norte 0 -- -- 44
2019-03-26 11:00:00 15.6 20 Norte 36 Norte 0 -- -- 52
2019-03-26 10:00:00 14.1 24 Noroeste 44 Noroeste 0 -- -- 56
2019-03-26 09:00:00 12.6 22 Noroeste 40 Noroeste 0 -- -- 63
2019-03-26 08:00:00 11.3 23 Noroeste 40 Norte 0 -- -- 66
2019-03-26 07:00:00 11.1 24 Norte 44 Noroeste 0 -- -- 67
2019-03-26 06:00:00 11.3 23 Norte 45 Norte 0 -- -- 66
2019-03-26 05:00:00 11.5 26 Norte 46 Norte 0 -- -- 65
2019-03-26 04:00:00 11.6 23 Noroeste 39 Noroeste 0 -- -- 64
2019-03-26 03:00:00 12 20 Norte 33 Norte 0 -- -- 62
2019-03-26 02:00:00 12.1 16 Noroeste 26 Norte 0 -- -- 63
2019-03-26 01:00:00 11.5 8 Noroeste 21 Noroeste 0 -- -- 66
2019-03-26 00:00:00 11.8 6 Noroeste 21 Norte 0 -- -- 63
2019-03-25 23:00:00 13.1 5 Norte 18 Norte 0 -- -- 58
2019-03-25 22:00:00 13.4 3 Sudoeste 12 Oeste 0 -- -- 59
2019-03-25 21:00:00 13.8 5 Oeste 13 Oeste 0 -- -- 63
2019-03-25 20:00:00 14.9 8 Oeste 18 Oeste 0 -- -- 65
2019-03-25 19:00:00 16.9 12 Sudoeste 23 Sudoeste 0 -- -- 56
2019-03-25 18:00:00 18.7 18 Sudoeste 23 Sudoeste 0 -- -- 44
2019-03-25 17:00:00 20.2 17 Sur 26 Sur 0 -- -- 42
2019-03-25 16:00:00 19.6 21 Sur 27 Sur 0 -- -- 53
2019-03-25 15:00:00 19.7 22 Sur 31 Sur 0 -- -- 55
2019-03-25 14:00:00 21.4 18 Sur 24 Sur 0 -- -- 44
2019-03-25 13:00:00 21.3 12 Sur 19 Sur 0 -- -- 43
2019-03-25 12:00:00 21.1 10 Norte 25 Noroeste 0 -- -- 40
2019-03-25 11:00:00 19.8 4 Norte 13 Norte 0 -- -- 40
2019-03-25 10:00:00 18.2 0 Calma 10 Noroeste 0 -- -- 45
2019-03-25 09:00:00 15.5 5 Noroeste 21 Noroeste 0 -- -- 56
2019-03-25 08:00:00 13.1 12 Noroeste 22 Noroeste 0 -- -- 64
2019-03-25 07:00:00 9.4 4 Noroeste 9 Norte 0 -- -- 81
2019-03-25 06:00:00 8.6 4 Noroeste 9 Noroeste 0 -- -- 83
2019-03-25 05:00:00 8.7 5 Noroeste 9 Noroeste 0 -- -- 86
2019-03-25 04:00:00 8.8 2 Oeste 5 Norte 0 -- -- 83
2019-03-25 03:00:00 9.2 0 Calma 12 Noroeste 0 -- -- 78
2019-03-25 02:00:00 10.4 5 Oeste 9 Noroeste 0 -- -- 81
2019-03-25 01:00:00 10.7 5 Oeste 8 Oeste 0 -- -- 83
2019-03-25 00:00:00 10.6 5 Oeste 8 Oeste 0 -- -- 83